sensor_id;sensor_type;location;lat;lon;timestamp;P1;durP1;ratioP1;P2;durP2;ratioP2
78143;SDS011;67394;52.522;13.622;2023-04-01T00:01:17;5.47;;;3.53;;
78143;SDS011;67394;52.522;13.622;2023-04-01T00:03:43;4.95;;;3.83;;
78143;SDS011;67394;52.522;13.622;2023-04-01T00:08:38;5.93;;;3.80;;
78143;SDS011;67394;52.522;13.622;2023-04-01T00:11:04;5.45;;;3.60;;
78143;SDS011;67394;52.522;13.622;2023-04-01T00:13:31;7.20;;;4.22;;
78143;SDS011;67394;52.522;13.622;2023-04-01T00:15:57;5.95;;;3.78;;
78143;SDS011;67394;52.522;13.622;2023-04-01T00:18:25;7.68;;;4.43;;
78143;SDS011;67394;52.522;13.622;2023-04-01T00:20:52;6.15;;;4.05;;
78143;SDS011;67394;52.522;13.622;2023-04-01T00:23:18;6.43;;;3.72;;
78143;SDS011;67394;52.522;13.622;2023-04-01T00:25:45;5.75;;;3.58;;
78143;SDS011;67394;52.522;13.622;2023-04-01T00:28:12;7.63;;;4.10;;
78143;SDS011;67394;52.522;13.622;2023-04-01T00:30:38;6.35;;;3.80;;
78143;SDS011;67394;52.522;13.622;2023-04-01T00:33:04;7.15;;;4.10;;
78143;SDS011;67394;52.522;13.622;2023-04-01T00:35:31;8.20;;;4.15;;
78143;SDS011;67394;52.522;13.622;2023-04-01T00:37:58;4.93;;;3.83;;
78143;SDS011;67394;52.522;13.622;2023-04-01T00:40:26;6.40;;;3.97;;
78143;SDS011;67394;52.522;13.622;2023-04-01T00:42:58;6.93;;;4.13;;
78143;SDS011;67394;52.522;13.622;2023-04-01T00:47:55;6.75;;;4.32;;
78143;SDS011;67394;52.522;13.622;2023-04-01T00:50:25;5.88;;;4.07;;
78143;SDS011;67394;52.522;13.622;2023-04-01T00:52:52;7.10;;;4.45;;
78143;SDS011;67394;52.522;13.622;2023-04-01T00:55:19;6.32;;;4.20;;
78143;SDS011;67394;52.522;13.622;2023-04-01T00:57:49;8.70;;;4.00;;
78143;SDS011;67394;52.522;13.622;2023-04-01T01:00:19;6.85;;;3.90;;
78143;SDS011;67394;52.522;13.622;2023-04-01T01:02:45;7.60;;;4.05;;
78143;SDS011;67394;52.522;13.622;2023-04-01T01:05:14;6.68;;;4.15;;
78143;SDS011;67394;52.522;13.622;2023-04-01T01:10:32;9.60;;;4.32;;
78143;SDS011;67394;52.522;13.622;2023-04-01T01:16:25;6.35;;;4.32;;
78143;SDS011;67394;52.522;13.622;2023-04-01T01:24:27;7.55;;;4.30;;
78143;SDS011;67394;52.522;13.622;2023-04-01T01:37:47;7.93;;;4.85;;
78143;SDS011;67394;52.522;13.622;2023-04-01T01:40:18;8.25;;;4.75;;
78143;SDS011;67394;52.522;13.622;2023-04-01T01:42:47;8.20;;;4.88;;
78143;SDS011;67394;52.522;13.622;2023-04-01T01:45:18;6.40;;;5.60;;
78143;SDS011;67394;52.522;13.622;2023-04-01T01:47:47;8.52;;;5.10;;
78143;SDS011;67394;52.522;13.622;2023-04-01T01:50:15;6.78;;;5.03;;
78143;SDS011;67394;52.522;13.622;2023-04-01T01:52:43;9.40;;;5.50;;
78143;SDS011;67394;52.522;13.622;2023-04-01T01:55:23;8.20;;;5.35;;
78143;SDS011;67394;52.522;13.622;2023-04-01T01:57:52;7.15;;;4.40;;
78143;SDS011;67394;52.522;13.622;2023-04-01T02:00:20;6.88;;;5.47;;
78143;SDS011;67394;52.522;13.622;2023-04-01T02:02:47;6.97;;;4.68;;
78143;SDS011;67394;52.522;13.622;2023-04-01T02:05:20;8.82;;;5.25;;
78143;SDS011;67394;52.522;13.622;2023-04-01T02:07:55;7.30;;;5.30;;
78143;SDS011;67394;52.522;13.622;2023-04-01T02:10:27;8.65;;;4.78;;
78143;SDS011;67394;52.522;13.622;2023-04-01T02:12:57;6.70;;;4.93;;
78143;SDS011;67394;52.522;13.622;2023-04-01T02:15:28;8.40;;;5.32;;
78143;SDS011;67394;52.522;13.622;2023-04-01T02:18:00;7.72;;;5.10;;
78143;SDS011;67394;52.522;13.622;2023-04-01T02:20:27;8.02;;;4.82;;
78143;SDS011;67394;52.522;13.622;2023-04-01T02:22:56;7.53;;;5.20;;
78143;SDS011;67394;52.522;13.622;2023-04-01T02:25:25;6.25;;;4.63;;
78143;SDS011;67394;52.522;13.622;2023-04-01T02:27:54;10.55;;;5.20;;
78143;SDS011;67394;52.522;13.622;2023-04-01T02:30:24;8.20;;;5.32;;
78143;SDS011;67394;52.522;13.622;2023-04-01T02:32:53;8.95;;;5.63;;
78143;SDS011;67394;52.522;13.622;2023-04-01T02:35:23;12.55;;;5.97;;
78143;SDS011;67394;52.522;13.622;2023-04-01T02:37:50;10.40;;;5.43;;
78143;SDS011;67394;52.522;13.622;2023-04-01T02:40:19;6.93;;;4.72;;
78143;SDS011;67394;52.522;13.622;2023-04-01T02:42:46;10.27;;;5.82;;
78143;SDS011;67394;52.522;13.622;2023-04-01T02:45:12;8.95;;;5.88;;
78143;SDS011;67394;52.522;13.622;2023-04-01T02:47:39;11.20;;;5.72;;
78143;SDS011;67394;52.522;13.622;2023-04-01T02:50:06;9.90;;;5.88;;
78143;SDS011;67394;52.522;13.622;2023-04-01T02:52:34;8.68;;;5.88;;
78143;SDS011;67394;52.522;13.622;2023-04-01T02:55:00;10.93;;;6.15;;
78143;SDS011;67394;52.522;13.622;2023-04-01T02:57:26;9.50;;;5.78;;
78143;SDS011;67394;52.522;13.622;2023-04-01T02:59:53;10.45;;;6.20;;
78143;SDS011;67394;52.522;13.622;2023-04-01T03:02:19;9.48;;;5.82;;
78143;SDS011;67394;52.522;13.622;2023-04-01T03:04:46;11.20;;;6.97;;
78143;SDS011;67394;52.522;13.622;2023-04-01T03:07:12;10.73;;;6.40;;
78143;SDS011;67394;52.522;13.622;2023-04-01T03:09:39;10.13;;;6.40;;
78143;SDS011;67394;52.522;13.622;2023-04-01T03:12:05;10.23;;;6.47;;
78143;SDS011;67394;52.522;13.622;2023-04-01T03:14:32;12.52;;;7.35;;
78143;SDS011;67394;52.522;13.622;2023-04-01T03:16:58;9.15;;;6.68;;
78143;SDS011;67394;52.522;13.622;2023-04-01T03:19:25;12.93;;;6.60;;
78143;SDS011;67394;52.522;13.622;2023-04-01T03:21:51;13.23;;;5.97;;
78143;SDS011;67394;52.522;13.622;2023-04-01T03:24:18;9.70;;;5.68;;
78143;SDS011;67394;52.522;13.622;2023-04-01T03:26:44;13.00;;;6.45;;
78143;SDS011;67394;52.522;13.622;2023-04-01T03:29:10;9.15;;;5.80;;
78143;SDS011;67394;52.522;13.622;2023-04-01T03:31:36;10.93;;;6.38;;
78143;SDS011;67394;52.522;13.622;2023-04-01T03:34:03;11.43;;;6.95;;
78143;SDS011;67394;52.522;13.622;2023-04-01T03:36:29;10.43;;;6.55;;
78143;SDS011;67394;52.522;13.622;2023-04-01T03:38:55;10.02;;;6.63;;
78143;SDS011;67394;52.522;13.622;2023-04-01T03:41:22;12.60;;;7.13;;
78143;SDS011;67394;52.522;13.622;2023-04-01T03:43:48;10.65;;;6.82;;
78143;SDS011;67394;52.522;13.622;2023-04-01T03:46:18;11.93;;;7.03;;
78143;SDS011;67394;52.522;13.622;2023-04-01T03:48:45;12.68;;;7.10;;
78143;SDS011;67394;52.522;13.622;2023-04-01T03:51:12;10.02;;;6.15;;
78143;SDS011;67394;52.522;13.622;2023-04-01T03:53:39;11.65;;;6.65;;
78143;SDS011;67394;52.522;13.622;2023-04-01T03:56:06;9.98;;;6.00;;
78143;SDS011;67394;52.522;13.622;2023-04-01T03:58:33;11.00;;;6.47;;
78143;SDS011;67394;52.522;13.622;2023-04-01T04:01:00;12.10;;;6.80;;
78143;SDS011;67394;52.522;13.622;2023-04-01T04:03:27;10.68;;;6.88;;
78143;SDS011;67394;52.522;13.622;2023-04-01T04:05:53;10.80;;;6.40;;
78143;SDS011;67394;52.522;13.622;2023-04-01T04:08:20;12.85;;;7.07;;
78143;SDS011;67394;52.522;13.622;2023-04-01T04:10:46;13.43;;;7.00;;
78143;SDS011;67394;52.522;13.622;2023-04-01T04:13:12;10.40;;;7.00;;
78143;SDS011;67394;52.522;13.622;2023-04-01T04:15:39;12.13;;;6.80;;
78143;SDS011;67394;52.522;13.622;2023-04-01T04:18:05;13.98;;;7.55;;
78143;SDS011;67394;52.522;13.622;2023-04-01T04:20:31;11.90;;;7.15;;
78143;SDS011;67394;52.522;13.622;2023-04-01T04:22:58;10.57;;;6.95;;
78143;SDS011;67394;52.522;13.622;2023-04-01T04:25:26;8.98;;;6.43;;
78143;SDS011;67394;52.522;13.622;2023-04-01T04:27:52;15.25;;;8.13;;
78143;SDS011;67394;52.522;13.622;2023-04-01T04:30:19;14.13;;;7.28;;
78143;SDS011;67394;52.522;13.622;2023-04-01T04:32:45;12.88;;;7.55;;
78143;SDS011;67394;52.522;13.622;2023-04-01T04:35:11;17.10;;;7.93;;
78143;SDS011;67394;52.522;13.622;2023-04-01T04:37:38;13.95;;;7.70;;
78143;SDS011;67394;52.522;13.622;2023-04-01T04:40:04;13.82;;;7.03;;
78143;SDS011;67394;52.522;13.622;2023-04-01T04:42:31;14.35;;;7.47;;
78143;SDS011;67394;52.522;13.622;2023-04-01T04:44:57;13.82;;;8.25;;
78143;SDS011;67394;52.522;13.622;2023-04-01T04:47:24;11.85;;;7.28;;
78143;SDS011;67394;52.522;13.622;2023-04-01T04:49:50;13.98;;;7.85;;
78143;SDS011;67394;52.522;13.622;2023-04-01T04:52:16;14.05;;;7.28;;
78143;SDS011;67394;52.522;13.622;2023-04-01T04:54:43;13.13;;;7.53;;
78143;SDS011;67394;52.522;13.622;2023-04-01T04:57:09;13.07;;;8.20;;
78143;SDS011;67394;52.522;13.622;2023-04-01T04:59:35;11.65;;;7.28;;
78143;SDS011;67394;52.522;13.622;2023-04-01T05:02:02;14.18;;;8.40;;
78143;SDS011;67394;52.522;13.622;2023-04-01T05:04:28;15.23;;;7.40;;
78143;SDS011;67394;52.522;13.622;2023-04-01T05:06:54;12.88;;;7.47;;
78143;SDS011;67394;52.522;13.622;2023-04-01T05:09:21;12.73;;;7.13;;
78143;SDS011;67394;52.522;13.622;2023-04-01T05:11:47;13.80;;;7.43;;
78143;SDS011;67394;52.522;13.622;2023-04-01T05:14:14;13.02;;;6.88;;
78143;SDS011;67394;52.522;13.622;2023-04-01T05:16:41;13.73;;;7.82;;
78143;SDS011;67394;52.522;13.622;2023-04-01T05:19:07;10.48;;;6.50;;
78143;SDS011;67394;52.522;13.622;2023-04-01T05:21:34;11.55;;;7.00;;
78143;SDS011;67394;52.522;13.622;2023-04-01T05:24:00;11.88;;;7.20;;
78143;SDS011;67394;52.522;13.622;2023-04-01T05:26:27;10.52;;;7.10;;
78143;SDS011;67394;52.522;13.622;2023-04-01T05:28:53;13.30;;;8.07;;
78143;SDS011;67394;52.522;13.622;2023-04-01T05:31:19;13.93;;;7.53;;
78143;SDS011;67394;52.522;13.622;2023-04-01T05:33:46;11.23;;;6.88;;
78143;SDS011;67394;52.522;13.622;2023-04-01T05:36:13;12.13;;;7.95;;
78143;SDS011;67394;52.522;13.622;2023-04-01T05:38:42;12.80;;;7.93;;
78143;SDS011;67394;52.522;13.622;2023-04-01T05:41:08;12.23;;;7.28;;
78143;SDS011;67394;52.522;13.622;2023-04-01T05:43:38;12.52;;;7.00;;
78143;SDS011;67394;52.522;13.622;2023-04-01T05:46:05;12.70;;;7.50;;
78143;SDS011;67394;52.522;13.622;2023-04-01T05:48:32;12.68;;;7.10;;
78143;SDS011;67394;52.522;13.622;2023-04-01T05:51:00;10.60;;;6.90;;
78143;SDS011;67394;52.522;13.622;2023-04-01T05:53:26;12.00;;;7.30;;
78143;SDS011;67394;52.522;13.622;2023-04-01T05:55:53;12.52;;;7.13;;
78143;SDS011;67394;52.522;13.622;2023-04-01T05:58:19;10.57;;;6.93;;
78143;SDS011;67394;52.522;13.622;2023-04-01T06:00:45;11.32;;;6.15;;
78143;SDS011;67394;52.522;13.622;2023-04-01T06:03:13;12.85;;;6.65;;
78143;SDS011;67394;52.522;13.622;2023-04-01T06:05:40;12.20;;;6.78;;
78143;SDS011;67394;52.522;13.622;2023-04-01T06:08:18;11.35;;;6.38;;
78143;SDS011;67394;52.522;13.622;2023-04-01T06:15:57;12.82;;;6.53;;
78143;SDS011;67394;52.522;13.622;2023-04-01T06:24:19;11.32;;;6.50;;
78143;SDS011;67394;52.522;13.622;2023-04-01T06:35:31;12.93;;;6.68;;
78143;SDS011;67394;52.522;13.622;2023-04-01T06:46:44;10.18;;;6.57;;
78143;SDS011;67394;52.522;13.622;2023-04-01T06:54:52;12.02;;;6.10;;
78143;SDS011;67394;52.522;13.622;2023-04-01T07:00:29;8.80;;;5.43;;
78143;SDS011;67394;52.522;13.622;2023-04-01T07:05:43;7.60;;;4.88;;
78143;SDS011;67394;52.522;13.622;2023-04-01T07:08:11;9.90;;;5.45;;
78143;SDS011;67394;52.522;13.622;2023-04-01T07:13:25;8.32;;;5.60;;
78143;SDS011;67394;52.522;13.622;2023-04-01T07:16:17;9.30;;;5.70;;
78143;SDS011;67394;52.522;13.622;2023-04-01T07:19:47;9.13;;;5.85;;
78143;SDS011;67394;52.522;13.622;2023-04-01T07:24:51;10.70;;;7.05;;
78143;SDS011;67394;52.522;13.622;2023-04-01T07:27:20;10.73;;;6.88;;
78143;SDS011;67394;52.522;13.622;2023-04-01T07:29:46;10.95;;;6.68;;
78143;SDS011;67394;52.522;13.622;2023-04-01T07:32:17;12.30;;;6.93;;
78143;SDS011;67394;52.522;13.622;2023-04-01T07:48:55;8.55;;;5.53;;
78143;SDS011;67394;52.522;13.622;2023-04-01T07:54:10;10.43;;;5.35;;
78143;SDS011;67394;52.522;13.622;2023-04-01T07:56:51;9.35;;;5.30;;
78143;SDS011;67394;52.522;13.622;2023-04-01T08:03:10;14.75;;;7.40;;
78143;SDS011;67394;52.522;13.622;2023-04-01T08:10:53;19.83;;;9.55;;
78143;SDS011;67394;52.522;13.622;2023-04-01T08:16:20;18.63;;;8.80;;
78143;SDS011;67394;52.522;13.622;2023-04-01T08:21:25;21.67;;;9.93;;
78143;SDS011;67394;52.522;13.622;2023-04-01T08:23:56;21.25;;;10.65;;
78143;SDS011;67394;52.522;13.622;2023-04-01T08:26:34;20.63;;;9.65;;
78143;SDS011;67394;52.522;13.622;2023-04-01T08:29:04;19.10;;;10.10;;
78143;SDS011;67394;52.522;13.622;2023-04-01T08:31:40;20.30;;;9.65;;
78143;SDS011;67394;52.522;13.622;2023-04-01T08:34:15;19.77;;;10.23;;
78143;SDS011;67394;52.522;13.622;2023-04-01T08:36:49;18.85;;;9.82;;
78143;SDS011;67394;52.522;13.622;2023-04-01T08:39:35;18.25;;;9.90;;
78143;SDS011;67394;52.522;13.622;2023-04-01T09:03:15;15.38;;;9.27;;
78143;SDS011;67394;52.522;13.622;2023-04-01T09:11:16;17.45;;;10.25;;
78143;SDS011;67394;52.522;13.622;2023-04-01T09:16:28;18.30;;;9.95;;
78143;SDS011;67394;52.522;13.622;2023-04-01T09:19:09;16.38;;;9.40;;
78143;SDS011;67394;52.522;13.622;2023-04-01T09:22:04;15.40;;;8.70;;
78143;SDS011;67394;52.522;13.622;2023-04-01T09:24:59;17.33;;;8.82;;
78143;SDS011;67394;52.522;13.622;2023-04-01T09:33:54;17.98;;;9.35;;
78143;SDS011;67394;52.522;13.622;2023-04-01T09:44:30;17.35;;;10.25;;
78143;SDS011;67394;52.522;13.622;2023-04-01T09:47:15;17.00;;;10.52;;
78143;SDS011;67394;52.522;13.622;2023-04-01T09:56:08;15.98;;;9.80;;
78143;SDS011;67394;52.522;13.622;2023-04-01T11:11:16;8.38;;;5.00;;
78143;SDS011;67394;52.522;13.622;2023-04-01T11:19:56;4.78;;;3.47;;
78143;SDS011;67394;52.522;13.622;2023-04-01T11:33:24;5.15;;;3.40;;
78143;SDS011;67394;52.522;13.622;2023-04-01T11:36:04;3.70;;;2.88;;
78143;SDS011;67394;52.522;13.622;2023-04-01T11:41:38;3.90;;;3.00;;
78143;SDS011;67394;52.522;13.622;2023-04-01T11:44:19;5.35;;;3.25;;
78143;SDS011;67394;52.522;13.622;2023-04-01T11:47:00;5.50;;;3.08;;
78143;SDS011;67394;52.522;13.622;2023-04-01T11:56:07;3.70;;;2.78;;
78143;SDS011;67394;52.522;13.622;2023-04-01T11:59:03;3.67;;;2.83;;
78143;SDS011;67394;52.522;13.622;2023-04-01T12:07:15;5.68;;;3.60;;
78143;SDS011;67394;52.522;13.622;2023-04-01T12:12:59;4.78;;;3.20;;
78143;SDS011;67394;52.522;13.622;2023-04-01T12:15:48;5.80;;;3.38;;
78143;SDS011;67394;52.522;13.622;2023-04-01T12:37:55;4.30;;;3.15;;
78143;SDS011;67394;52.522;13.622;2023-04-01T12:48:57;5.20;;;3.72;;
78143;SDS011;67394;52.522;13.622;2023-04-01T12:51:47;4.88;;;3.30;;
78143;SDS011;67394;52.522;13.622;2023-04-01T13:02:30;4.80;;;3.35;;
78143;SDS011;67394;52.522;13.622;2023-04-01T13:11:02;8.48;;;5.57;;
78143;SDS011;67394;52.522;13.622;2023-04-01T13:19:04;10.90;;;7.53;;
78143;SDS011;67394;52.522;13.622;2023-04-01T13:27:09;10.65;;;7.07;;
78143;SDS011;67394;52.522;13.622;2023-04-01T13:32:39;10.90;;;6.68;;
78143;SDS011;67394;52.522;13.622;2023-04-01T13:35:39;11.13;;;7.32;;
78143;SDS011;67394;52.522;13.622;2023-04-01T13:40:49;11.32;;;7.65;;
78143;SDS011;67394;52.522;13.622;2023-04-01T13:56:34;10.13;;;6.78;;
78143;SDS011;67394;52.522;13.622;2023-04-01T14:08:20;8.32;;;6.47;;
78143;SDS011;67394;52.522;13.622;2023-04-01T14:33:47;9.98;;;5.80;;
78143;SDS011;67394;52.522;13.622;2023-04-01T14:39:22;6.82;;;5.28;;
78143;SDS011;67394;52.522;13.622;2023-04-01T14:42:11;7.07;;;5.20;;
78143;SDS011;67394;52.522;13.622;2023-04-01T14:45:15;7.72;;;4.75;;
78143;SDS011;67394;52.522;13.622;2023-04-01T14:51:10;7.13;;;5.80;;
78143;SDS011;67394;52.522;13.622;2023-04-01T14:54:07;6.60;;;5.00;;
78143;SDS011;67394;52.522;13.622;2023-04-01T14:56:39;8.07;;;5.30;;
78143;SDS011;67394;52.522;13.622;2023-04-01T14:59:17;9.45;;;5.30;;
78143;SDS011;67394;52.522;13.622;2023-04-01T15:04:46;6.25;;;4.30;;
78143;SDS011;67394;52.522;13.622;2023-04-01T15:24:07;9.70;;;5.82;;
78143;SDS011;67394;52.522;13.622;2023-04-01T15:35:12;7.55;;;5.55;;
78143;SDS011;67394;52.522;13.622;2023-04-01T15:37:48;6.88;;;4.45;;
78143;SDS011;67394;52.522;13.622;2023-04-01T15:54:23;6.45;;;4.95;;
78143;SDS011;67394;52.522;13.622;2023-04-01T15:59:52;7.28;;;5.35;;
78143;SDS011;67394;52.522;13.622;2023-04-01T16:07:43;6.68;;;5.10;;
78143;SDS011;67394;52.522;13.622;2023-04-01T16:15:47;8.80;;;6.28;;
78143;SDS011;67394;52.522;13.622;2023-04-01T16:18:26;8.50;;;6.68;;
78143;SDS011;67394;52.522;13.622;2023-04-01T16:24:17;8.52;;;7.03;;
78143;SDS011;67394;52.522;13.622;2023-04-01T16:26:52;7.93;;;6.28;;
78143;SDS011;67394;52.522;13.622;2023-04-01T16:42:48;9.43;;;6.60;;
78143;SDS011;67394;52.522;13.622;2023-04-01T16:45:33;7.32;;;5.75;;
78143;SDS011;67394;52.522;13.622;2023-04-01T16:50:42;9.98;;;7.18;;
78143;SDS011;67394;52.522;13.622;2023-04-01T16:53:42;8.75;;;6.70;;
78143;SDS011;67394;52.522;13.622;2023-04-01T16:56:13;9.88;;;7.47;;
78143;SDS011;67394;52.522;13.622;2023-04-01T16:59:04;8.60;;;6.68;;
78143;SDS011;67394;52.522;13.622;2023-04-01T17:02:23;10.60;;;7.60;;
78143;SDS011;67394;52.522;13.622;2023-04-01T17:04:47;8.00;;;6.25;;
78143;SDS011;67394;52.522;13.622;2023-04-01T17:15:57;10.25;;;6.82;;
78143;SDS011;67394;52.522;13.622;2023-04-01T17:26:55;10.43;;;7.30;;
78143;SDS011;67394;52.522;13.622;2023-04-01T17:35:27;9.85;;;6.03;;
78143;SDS011;67394;52.522;13.622;2023-04-01T17:40:53;8.40;;;5.80;;
78143;SDS011;67394;52.522;13.622;2023-04-01T17:43:37;7.63;;;6.10;;
78143;SDS011;67394;52.522;13.622;2023-04-01T17:58:16;10.32;;;7.10;;
78143;SDS011;67394;52.522;13.622;2023-04-01T18:01:00;9.60;;;7.25;;
78143;SDS011;67394;52.522;13.622;2023-04-01T18:06:29;11.82;;;6.55;;
78143;SDS011;67394;52.522;13.622;2023-04-01T18:09:05;9.75;;;7.15;;
78143;SDS011;67394;52.522;13.622;2023-04-01T18:11:56;7.63;;;6.28;;
78143;SDS011;67394;52.522;13.622;2023-04-01T18:17:36;8.45;;;5.65;;
78143;SDS011;67394;52.522;13.622;2023-04-01T18:22:59;6.50;;;4.43;;
78143;SDS011;67394;52.522;13.622;2023-04-01T18:25:41;9.30;;;4.90;;
78143;SDS011;67394;52.522;13.622;2023-04-01T18:36:13;7.10;;;4.00;;
78143;SDS011;67394;52.522;13.622;2023-04-01T18:44:48;6.68;;;4.90;;
78143;SDS011;67394;52.522;13.622;2023-04-01T18:47:30;9.02;;;6.10;;
78143;SDS011;67394;52.522;13.622;2023-04-01T18:52:56;6.95;;;4.43;;
78143;SDS011;67394;52.522;13.622;2023-04-01T18:55:35;6.68;;;4.47;;
78143;SDS011;67394;52.522;13.622;2023-04-01T18:58:33;8.20;;;4.40;;
78143;SDS011;67394;52.522;13.622;2023-04-01T19:01:17;9.05;;;5.05;;
78143;SDS011;67394;52.522;13.622;2023-04-01T19:06:23;7.85;;;5.20;;
78143;SDS011;67394;52.522;13.622;2023-04-01T19:08:55;11.32;;;6.85;;
78143;SDS011;67394;52.522;13.622;2023-04-01T19:12:00;9.02;;;5.60;;
78143;SDS011;67394;52.522;13.622;2023-04-01T19:25:48;10.68;;;5.03;;
78143;SDS011;67394;52.522;13.622;2023-04-01T19:28:25;9.63;;;4.90;;
78143;SDS011;67394;52.522;13.622;2023-04-01T19:31:04;9.80;;;5.85;;
78143;SDS011;67394;52.522;13.622;2023-04-01T19:33:51;10.10;;;6.45;;
78143;SDS011;67394;52.522;13.622;2023-04-01T19:50:34;8.40;;;6.15;;
78143;SDS011;67394;52.522;13.622;2023-04-01T19:53:08;11.43;;;6.15;;
78143;SDS011;67394;52.522;13.622;2023-04-01T19:58:33;10.57;;;6.32;;
78143;SDS011;67394;52.522;13.622;2023-04-01T20:01:22;10.80;;;6.10;;
78143;SDS011;67394;52.522;13.622;2023-04-01T20:04:11;12.05;;;6.32;;
78143;SDS011;67394;52.522;13.622;2023-04-01T20:06:56;8.20;;;5.47;;
78143;SDS011;67394;52.522;13.622;2023-04-01T20:12:19;10.32;;;6.55;;
78143;SDS011;67394;52.522;13.622;2023-04-01T20:18:18;8.48;;;6.10;;
78143;SDS011;67394;52.522;13.622;2023-04-01T20:20:56;9.95;;;6.55;;
78143;SDS011;67394;52.522;13.622;2023-04-01T20:23:40;12.50;;;7.40;;
78143;SDS011;67394;52.522;13.622;2023-04-01T20:26:11;12.38;;;6.72;;
78143;SDS011;67394;52.522;13.622;2023-04-01T20:31:20;11.20;;;7.28;;
78143;SDS011;67394;52.522;13.622;2023-04-01T20:33:54;12.82;;;7.53;;
78143;SDS011;67394;52.522;13.622;2023-04-01T20:53:12;13.80;;;6.95;;
78143;SDS011;67394;52.522;13.622;2023-04-01T21:04:17;12.35;;;6.20;;
78143;SDS011;67394;52.522;13.622;2023-04-01T21:12:05;10.52;;;6.75;;
78143;SDS011;67394;52.522;13.622;2023-04-01T21:15:03;11.93;;;6.22;;
78143;SDS011;67394;52.522;13.622;2023-04-01T21:25:56;9.85;;;6.57;;
78143;SDS011;67394;52.522;13.622;2023-04-01T21:45:33;10.80;;;5.93;;
78143;SDS011;67394;52.522;13.622;2023-04-01T21:54:07;7.75;;;4.90;;
78143;SDS011;67394;52.522;13.622;2023-04-01T22:05:35;8.90;;;5.18;;
78143;SDS011;67394;52.522;13.622;2023-04-01T22:08:31;10.00;;;5.93;;
78143;SDS011;67394;52.522;13.622;2023-04-01T22:11:04;6.57;;;5.35;;
78143;SDS011;67394;52.522;13.622;2023-04-01T22:13:46;6.75;;;4.55;;
78143;SDS011;67394;52.522;13.622;2023-04-01T22:16:19;9.07;;;4.80;;
78143;SDS011;67394;52.522;13.622;2023-04-01T22:24:06;8.75;;;5.07;;
78143;SDS011;67394;52.522;13.622;2023-04-01T22:26:59;5.70;;;4.47;;
78143;SDS011;67394;52.522;13.622;2023-04-01T22:29:28;6.25;;;4.38;;
78143;SDS011;67394;52.522;13.622;2023-04-01T22:32:09;8.07;;;4.60;;
78143;SDS011;67394;52.522;13.622;2023-04-01T22:42:46;7.88;;;4.35;;
78143;SDS011;67394;52.522;13.622;2023-04-01T22:53:36;6.88;;;4.47;;
78143;SDS011;67394;52.522;13.622;2023-04-01T22:56:19;8.32;;;4.47;;
78143;SDS011;67394;52.522;13.622;2023-04-01T22:58:51;7.60;;;4.28;;
78143;SDS011;67394;52.522;13.622;2023-04-01T23:01:24;6.10;;;4.22;;
78143;SDS011;67394;52.522;13.622;2023-04-01T23:03:55;6.78;;;3.83;;
78143;SDS011;67394;52.522;13.622;2023-04-01T23:06:28;7.25;;;3.78;;
78143;SDS011;67394;52.522;13.622;2023-04-01T23:09:11;6.68;;;3.97;;
78143;SDS011;67394;52.522;13.622;2023-04-01T23:14:28;6.22;;;3.75;;
78143;SDS011;67394;52.522;13.622;2023-04-01T23:17:02;6.53;;;3.70;;
78143;SDS011;67394;52.522;13.622;2023-04-01T23:19:37;5.97;;;4.10;;
78143;SDS011;67394;52.522;13.622;2023-04-01T23:25:13;6.57;;;3.55;;
78143;SDS011;67394;52.522;13.622;2023-04-01T23:30:46;8.93;;;4.00;;
78143;SDS011;67394;52.522;13.622;2023-04-01T23:38:41;5.95;;;3.65;;
78143;SDS011;67394;52.522;13.622;2023-04-01T23:41:20;6.43;;;3.95;;
78143;SDS011;67394;52.522;13.622;2023-04-01T23:43:55;6.78;;;3.50;;
78143;SDS011;67394;52.522;13.622;2023-04-01T23:46:25;6.10;;;3.40;;
78143;SDS011;67394;52.522;13.622;2023-04-01T23:48:52;6.15;;;4.10;;
78143;SDS011;67394;52.522;13.622;2023-04-01T23:51:24;5.85;;;4.32;;
78143;SDS011;67394;52.522;13.622;2023-04-01T23:54:03;5.68;;;4.00;;
78143;SDS011;67394;52.522;13.622;2023-04-01T23:56:45;4.88;;;3.28;;
78143;SDS011;67394;52.522;13.622;2023-04-01T23:59:18;6.32;;;3.78;;
